.
WxDataArchive / Data Records for 2012-05-02
2012-05-01 May 2012 2012-05-03

Data Records for Wednesday, 02 May 2012

Time	Temp	Chill	HIndex	Humid	Dewpt	 Wind 	HiWind	WindDir	Rain 	Barom 
-----	----	-----	------	-----	-----	------	------	-------	-----	----- 
00:00	58.9	58.9	58.9	94	57.2	0	0	---	0.02	29.905 
00:05	58.9	58.9	58.9	94	57.2	0	0	---	0.04	29.905 
00:10	59.0	59.0	59.0	95	57.6	1	5	112	0.02	29.905 
00:15	59.0	59.0	59.0	95	57.6	2	5	90	0.02	29.889 
00:20	59.2	59.2	59.2	95	57.8	2	5	68	0.01	29.889 
00:25	59.0	59.0	59.0	95	57.6	1	3	68	0.00	29.889 
00:30	59.0	59.0	59.0	95	57.6	1	3	68	0.00	29.889 
00:35	59.0	59.0	59.0	95	57.6	1	3	90	0.00	29.889 
00:40	59.0	59.0	59.0	95	57.6	0	0	---	0.00	29.889 
00:45	59.0	59.0	59.0	95	57.6	1	3	90	0.00	29.888 
00:50	59.0	59.0	59.0	95	57.6	0	4	90	0.00	29.888 
00:55	59.0	59.0	59.0	95	57.6	0	1	90	0.00	29.888 
01:00	59.0	59.0	59.0	96	57.9	0	2	90	0.00	29.890 
01:05	59.0	59.0	59.0	96	57.9	0	1	90	0.00	29.890 
01:10	59.0	59.0	59.0	96	57.9	0	1	90	0.00	29.890 
01:15	59.0	59.0	59.0	96	57.9	0	2	90	0.00	29.890 
01:20	58.9	58.9	58.9	96	57.8	0	1	90	0.00	29.890 
01:25	58.7	58.7	58.7	96	57.6	0	2	90	0.00	29.890 
01:30	58.7	58.7	58.7	96	57.6	0	3	90	0.00	29.890 
01:35	58.6	58.6	58.6	96	57.5	0	2	90	0.00	29.890 
01:40	58.4	58.4	58.4	96	57.3	1	3	90	0.00	29.890 
01:45	58.3	58.3	58.3	96	57.2	0	1	90	0.00	29.888 
01:50	58.1	58.1	58.1	96	57.0	1	3	90	0.00	29.888 
01:55	58.0	58.0	58.0	96	56.9	0	2	90	0.00	29.888 
02:00	57.8	57.8	57.8	96	56.7	0	1	90	0.00	29.885 
02:05	57.8	57.8	57.8	96	56.7	0	2	90	0.00	29.885 
02:10	57.6	57.6	57.6	96	56.5	0	1	90	0.00	29.885 
02:15	57.5	57.5	57.5	96	56.4	0	3	90	0.00	29.888 
02:20	57.5	57.5	57.5	96	56.4	0	2	90	0.00	29.888 
02:25	57.5	57.5	57.5	96	56.4	1	2	90	0.00	29.888 
02:30	57.5	57.5	57.5	96	56.4	0	2	90	0.00	29.889 
02:35	57.5	57.5	57.5	96	56.4	1	3	90	0.00	29.889 
02:40	57.5	57.5	57.5	96	56.4	1	3	90	0.00	29.889 
02:45	57.5	57.5	57.5	96	56.4	1	2	90	0.00	29.885 
02:50	57.3	57.3	57.3	96	56.2	1	4	90	0.00	29.885 
02:55	57.3	57.3	57.3	96	56.2	0	1	90	0.00	29.885 
03:00	57.3	57.3	57.3	96	56.2	0	1	90	0.00	29.887 
03:05	57.3	57.3	57.3	96	56.2	0	1	90	0.00	29.887 
03:10	57.3	57.3	57.3	96	56.2	0	3	90	0.00	29.887 
03:15	57.3	57.3	57.3	96	56.2	0	2	90	0.00	29.885 
03:20	57.3	57.3	57.3	96	56.2	0	2	90	0.00	29.885 
03:25	57.3	57.3	57.3	96	56.2	0	2	90	0.00	29.885 
03:30	57.5	57.5	57.5	96	56.4	0	1	90	0.00	29.884 
03:35	57.5	57.5	57.5	96	56.4	0	0	---	0.00	29.884 
03:40	57.5	57.5	57.5	96	56.4	0	1	90	0.00	29.884 
03:45	57.5	57.5	57.5	96	56.4	0	2	90	0.00	29.886 
03:50	57.5	57.5	57.5	96	56.4	0	1	90	0.00	29.886 
03:55	57.5	57.5	57.5	96	56.4	0	2	90	0.00	29.886 
04:00	57.3	57.3	57.3	96	56.2	0	1	90	0.00	29.878 
04:05	57.3	57.3	57.3	96	56.2	1	3	90	0.00	29.878 
04:10	57.2	57.2	57.2	96	56.1	1	3	90	0.00	29.878 
04:15	57.2	57.2	57.2	96	56.1	0	2	90	0.00	29.881 
04:20	57.0	57.0	57.0	96	55.9	1	3	90	0.00	29.881 
04:25	57.0	57.0	57.0	96	55.9	0	1	90	0.00	29.881 
04:30	57.0	57.0	57.0	96	55.9	1	3	90	0.00	29.879 
04:35	57.0	57.0	57.0	97	56.2	0	2	90	0.00	29.879 
04:40	57.0	57.0	57.0	97	56.2	1	2	90	0.00	29.879 
04:45	56.9	56.9	56.9	97	56.1	0	2	90	0.00	29.876 
04:50	56.9	56.9	56.9	97	56.1	0	2	90	0.00	29.876 
04:55	56.9	56.9	56.9	97	56.1	0	1	90	0.00	29.876 
05:00	56.9	56.9	56.9	97	56.1	0	0	---	0.00	29.875 
05:05	56.9	56.9	56.9	97	56.1	0	2	90	0.00	29.875 
05:10	56.7	56.7	56.7	97	55.9	0	2	90	0.00	29.875 
05:15	56.7	56.7	56.7	97	55.9	0	2	90	0.00	29.876 
05:20	56.6	56.6	56.6	97	55.8	0	1	90	0.00	29.876 
05:25	56.6	56.6	56.6	97	55.8	0	1	90	0.00	29.876 
05:30	56.6	56.6	56.6	97	55.8	0	1	90	0.00	29.876 
05:35	56.6	56.6	56.6	97	55.8	0	1	90	0.00	29.876 
05:40	56.6	56.6	56.6	97	55.8	0	1	90	0.00	29.876 
05:45	56.6	56.6	56.6	97	55.8	0	2	90	0.00	29.876 
05:50	56.6	56.6	56.6	97	55.8	0	1	90	0.00	29.876 
05:55	56.7	56.7	56.7	97	55.9	0	1	90	0.00	29.876 
06:00	56.7	56.7	56.7	97	55.9	0	0	---	0.00	29.878 
06:05	56.7	56.7	56.7	97	55.9	0	1	90	0.00	29.878 
06:10	56.7	56.7	56.7	97	55.9	0	1	90	0.00	29.878 
06:15	56.7	56.7	56.7	97	55.9	0	0	---	0.00	29.880 
06:20	56.7	56.7	56.7	97	55.9	0	1	90	0.00	29.880 
06:25	56.7	56.7	56.7	97	55.9	0	0	---	0.00	29.880 
06:30	56.7	56.7	56.7	97	55.9	0	0	---	0.00	29.881 
06:35	56.7	56.7	56.7	97	55.9	0	0	---	0.00	29.881 
06:40	56.9	56.9	56.9	97	56.1	0	1	90	0.00	29.881 
06:45	56.9	56.9	56.9	97	56.1	0	2	90	0.00	29.888 
06:50	56.9	56.9	56.9	97	56.1	0	2	90	0.00	29.888 
06:55	56.9	56.9	56.9	97	56.1	0	0	---	0.00	29.888 
07:00	56.9	56.9	56.9	97	56.1	0	1	90	0.00	29.891 
07:05	57.0	57.0	57.0	97	56.2	0	1	90	0.00	29.891 
07:10	57.0	57.0	57.0	97	56.2	0	1	90	0.00	29.891 
07:15	57.0	57.0	57.0	97	56.2	0	2	90	0.00	29.894 
07:20	57.2	57.2	57.2	97	56.4	0	0	---	0.00	29.894 
07:25	57.2	57.2	57.2	97	56.4	0	0	---	0.00	29.894 
07:30	57.3	57.3	57.3	97	56.5	0	0	---	0.00	29.893 
07:35	57.5	57.5	57.5	97	56.7	0	0	---	0.00	29.893 
07:40	57.6	57.6	57.6	97	56.8	0	0	---	0.00	29.893 
07:45	57.8	57.8	57.8	98	57.2	0	1	90	0.00	29.893 
07:50	58.1	58.1	58.1	98	57.5	0	0	---	0.00	29.893 
07:55	58.4	58.4	58.4	98	57.8	0	0	---	0.00	29.893 
08:00	58.9	58.9	58.9	98	58.3	0	0	---	0.00	29.899 
08:05	59.3	59.3	59.3	98	58.7	0	0	---	0.00	29.899 
08:10	59.8	59.8	59.8	98	59.2	0	0	---	0.00	29.899 
08:15	60.5	60.5	60.5	98	59.9	0	0	---	0.00	29.897 
08:20	61.2	61.2	61.2	98	60.6	0	1	90	0.00	29.897 
08:25	61.6	61.6	61.6	98	61.0	0	0	---	0.00	29.897 
08:30	62.1	62.1	62.1	98	61.5	0	2	90	0.00	29.894 
08:35	62.4	62.4	62.4	98	61.8	0	1	90	0.00	29.894 
08:40	62.6	62.6	62.6	98	62.0	0	1	90	0.00	29.894 
08:45	62.9	62.9	62.9	98	62.3	0	0	---	0.00	29.897 
08:50	63.5	63.5	63.5	98	62.9	0	1	90	0.00	29.897 
08:55	64.0	64.0	64.0	98	63.4	0	1	90	0.00	29.897 
09:00	64.7	64.7	64.7	98	64.1	0	1	90	0.00	29.894 
09:05	65.0	65.0	65.0	98	64.4	0	2	90	0.00	29.894 
09:10	65.5	65.5	65.5	98	64.9	0	2	90	0.00	29.894 
09:15	65.8	65.8	65.8	98	65.2	1	3	90	0.00	29.892 
09:20	66.4	66.4	66.4	98	65.8	1	4	270	0.00	29.892 
09:25	66.9	66.9	66.9	98	66.3	1	3	270	0.00	29.892 
09:30	67.4	67.4	67.4	98	66.8	1	3	270	0.00	29.889 
09:35	67.8	67.8	67.8	98	67.2	1	3	270	0.00	29.889 
09:40	67.9	67.9	67.9	97	67.0	1	4	270	0.00	29.889 
09:45	68.4	68.4	68.4	97	67.5	1	4	248	0.00	29.885 
09:50	68.8	68.8	68.8	97	67.9	2	6	270	0.00	29.885 
09:55	69.3	69.3	69.3	97	68.4	1	6	248	0.00	29.885 
10:00	69.4	69.4	69.4	96	68.2	2	6	248	0.00	29.892 
10:05	70.1	70.1	70.1	95	68.6	1	4	248	0.00	29.892 
10:10	70.4	70.4	70.4	94	68.6	2	6	248	0.00	29.892 
10:15	71.3	71.3	71.3	91	68.5	2	4	248	0.00	29.887 
10:20	72.0	72.0	72.0	86	67.6	2	5	270	0.00	29.887 
10:25	73.0	73.0	73.0	82	67.2	2	5	225	0.00	29.887 
10:30	73.3	73.3	73.3	78	66.0	3	5	248	0.00	29.883 
10:35	74.0	74.0	74.0	76	65.9	2	7	248	0.00	29.883 
10:40	74.4	74.4	74.4	73	65.2	3	6	248	0.00	29.883 
10:45	74.9	74.9	74.9	72	65.2	3	7	248	0.00	29.890 
10:50	75.3	75.3	76.8	72	65.6	3	6	270	0.00	29.890 
10:55	75.8	75.8	77.4	70	65.3	2	5	248	0.00	29.890 
11:00	76.1	76.1	77.8	69	65.2	3	7	248	0.00	29.890 
11:05	76.8	76.8	78.6	68	65.4	3	9	270	0.00	29.890 
11:10	77.4	77.4	79.2	69	66.4	2	5	270	0.00	29.890 
11:15	77.7	77.7	79.6	66	65.4	3	6	248	0.00	29.884 
11:20	78.3	78.3	80.2	65	65.5	3	7	270	0.00	29.884 
11:25	78.5	78.5	80.4	64	65.3	3	7	270	0.00	29.884 
11:30	78.6	78.6	80.5	64	65.4	3	6	270	0.00	29.885 
11:35	78.6	78.6	80.5	64	65.4	3	6	248	0.00	29.885 
11:40	78.8	78.8	80.8	65	66.0	2	4	248	0.00	29.885 
11:45	79.2	79.2	81.2	64	65.9	3	5	292	0.00	29.890 
11:50	79.6	79.6	81.6	63	65.9	2	6	248	0.00	29.890 
11:55	79.6	79.6	81.6	63	65.9	3	6	270	0.00	29.890 
12:00	79.8	79.8	81.9	63	66.1	2	4	270	0.00	29.891 
12:05	79.9	79.9	81.8	61	65.2	3	6	270	0.00	29.891 
12:10	80.3	80.3	82.3	61	65.6	3	5	270	0.00	29.891 
12:15	80.5	80.5	82.4	60	65.3	3	6	248	0.00	29.891 
12:20	80.7	80.7	82.7	60	65.5	3	9	248	0.00	29.891 
12:25	80.7	80.7	82.8	61	66.0	3	7	270	0.00	29.891 
12:30	80.9	80.9	82.9	60	65.7	3	6	270	0.00	29.890 
12:35	81.1	81.1	83.3	61	66.4	2	5	248	0.00	29.890 
12:40	81.1	81.1	83.0	59	65.4	4	7	270	0.00	29.890 
12:45	80.7	80.7	82.7	60	65.5	3	8	248	0.00	29.889 
12:50	80.3	80.3	82.1	59	64.6	4	10	248	0.00	29.889 
12:55	80.9	80.9	83.2	62	66.6	2	4	248	0.00	29.889 
13:00	81.2	81.2	83.3	60	66.0	4	7	248	0.00	29.889 
13:05	81.2	81.2	83.2	59	65.5	3	7	248	0.00	29.889 
13:10	80.9	80.9	82.8	59	65.2	3	9	270	0.00	29.889 
13:15	80.9	80.9	82.8	59	65.2	5	9	270	0.00	29.886 
13:20	80.7	80.7	82.5	59	65.0	4	7	270	0.00	29.886 
13:25	80.9	80.9	82.9	60	65.7	3	7	248	0.00	29.886 
13:30	80.9	80.9	82.7	58	64.7	3	10	248	0.00	29.887 
13:35	81.1	81.1	83.0	59	65.4	4	9	270	0.00	29.887 
13:40	81.1	81.1	82.9	58	64.9	3	7	248	0.00	29.887 
13:45	81.1	81.1	83.0	59	65.4	4	10	248	0.00	29.890 
13:50	81.6	81.6	83.5	58	65.4	4	10	248	0.00	29.890 
13:55	82.2	82.2	84.2	57	65.4	4	10	248	0.00	29.890 
14:00	82.4	82.4	84.4	57	65.6	4	10	270	0.00	29.886 
14:05	82.6	82.6	84.7	57	65.8	4	10	248	0.00	29.886 
14:10	82.2	82.2	83.8	55	64.4	5	11	270	0.00	29.886 
14:15	82.2	82.2	84.0	56	64.9	3	7	248	0.00	29.891 
14:20	81.8	81.8	83.8	58	65.6	4	12	270	0.00	29.891 
14:25	81.8	81.8	83.8	58	65.6	4	13	248	0.00	29.891 
14:30	82.0	82.0	83.9	57	65.2	5	9	270	0.00	29.881 
14:35	82.2	82.2	84.3	58	65.9	2	7	248	0.00	29.881 
14:40	82.6	82.6	84.7	57	65.8	2	6	292	0.00	29.881 
14:45	82.4	82.4	84.2	56	65.1	4	8	248	0.00	29.888 
14:50	82.0	82.0	83.9	57	65.2	4	9	248	0.00	29.888 
14:55	81.8	81.8	83.6	57	65.0	3	6	248	0.00	29.888 
15:00	82.0	82.0	84.1	58	65.7	3	7	270	0.00	29.892 
15:05	82.0	82.0	83.7	56	64.7	4	9	248	0.00	29.892 
15:10	82.2	82.2	83.8	55	64.4	4	10	248	0.00	29.892 
15:15	82.8	82.8	84.6	55	65.0	3	9	248	0.00	29.891 
15:20	82.4	82.4	84.1	55	64.6	4	7	248	0.00	29.891 
15:25	82.2	82.2	84.0	56	64.9	4	11	248	0.00	29.891 
15:30	82.2	82.2	84.0	56	64.9	4	8	248	0.00	29.891 
15:35	82.6	82.6	84.9	58	66.3	2	6	248	0.00	29.891 
15:40	83.2	83.2	85.1	55	65.3	3	11	248	0.00	29.891 
15:45	83.4	83.4	85.0	53	64.4	3	6	248	0.00	29.884 
15:50	83.2	83.2	84.9	54	64.8	4	11	248	0.00	29.884 
15:55	83.0	83.0	84.7	54	64.6	4	10	270	0.00	29.884 
16:00	83.2	83.2	85.1	55	65.3	3	6	270	0.00	29.881 
16:05	83.4	83.4	85.2	54	65.0	3	7	270	0.00	29.881 
16:10	83.4	83.4	85.2	54	65.0	3	12	248	0.00	29.881 
16:15	83.4	83.4	85.2	54	65.0	3	7	270	0.00	29.878 
16:20	83.2	83.2	84.9	54	64.8	3	9	270	0.00	29.878 
16:25	83.4	83.4	85.0	53	64.4	3	8	248	0.00	29.878 
16:30	83.4	83.4	85.0	53	64.4	4	9	248	0.00	29.871 
16:35	83.2	83.2	84.9	54	64.8	4	9	248	0.00	29.871 
16:40	83.0	83.0	84.9	55	65.1	5	12	248	0.00	29.871 
16:45	83.2	83.2	85.1	55	65.3	3	7	225	0.00	29.870 
16:50	83.4	83.4	85.2	54	65.0	3	7	248	0.00	29.870 
16:55	83.2	83.2	84.9	54	64.8	4	10	248	0.00	29.870 
17:00	83.0	83.0	85.1	56	65.7	4	12	248	0.00	29.865 
17:05	82.8	82.8	84.8	56	65.5	3	6	248	0.00	29.865 
17:10	82.6	82.6	84.3	55	64.8	3	11	248	0.00	29.865 
17:15	82.6	82.6	84.1	54	64.2	4	7	248	0.00	29.862 
17:20	82.8	82.8	84.6	55	65.0	2	6	225	0.00	29.862 
17:25	82.6	82.6	84.3	55	64.8	2	7	248	0.00	29.862 
17:30	82.4	82.4	83.9	54	64.1	2	9	248	0.00	29.859 
17:35	82.4	82.4	84.1	55	64.6	3	9	248	0.00	29.859 
17:40	82.4	82.4	84.1	55	64.6	3	9	248	0.00	29.859 
17:45	82.4	82.4	83.9	54	64.1	3	5	248	0.00	29.863 
17:50	82.0	82.0	83.2	53	63.2	3	10	248	0.00	29.863 
17:55	81.8	81.8	83.2	54	63.5	2	9	248	0.00	29.863 
18:00	82.2	82.2	83.6	54	63.9	2	5	248	0.00	29.867 
18:05	82.2	82.2	83.3	52	62.8	2	6	248	0.00	29.867 
18:10	82.4	82.4	83.5	52	63.0	1	5	248	0.00	29.867 
18:15	82.2	82.2	83.5	53	63.3	2	11	248	0.00	29.876 
18:20	82.0	82.0	83.2	53	63.2	2	6	248	0.00	29.876 
18:25	82.2	82.2	83.6	54	63.9	2	4	248	0.00	29.876 
18:30	82.2	82.2	83.3	52	62.8	1	4	248	0.00	29.883 
18:35	82.2	82.2	83.3	52	62.8	2	5	248	0.00	29.883 
18:40	82.0	82.0	82.9	51	62.1	2	9	248	0.00	29.883 
18:45	81.8	81.8	82.7	51	61.9	2	4	248	0.00	29.886 
18:50	81.8	81.8	82.8	52	62.4	2	4	270	0.00	29.886 
18:55	81.8	81.8	82.7	51	61.9	1	4	248	0.00	29.886 
19:00	82.0	82.0	82.9	51	62.1	2	4	248	0.00	29.881 
19:05	81.8	81.8	82.8	52	62.4	1	5	248	0.00	29.881 
19:10	81.8	81.8	82.6	50	61.3	3	6	248	0.00	29.881 
19:15	81.8	81.8	82.7	51	61.9	2	6	270	0.00	29.891 
19:20	81.8	81.8	82.8	52	62.4	1	4	248	0.00	29.891 
19:25	81.6	81.6	82.6	52	62.2	2	6	248	0.00	29.891 
19:30	81.2	81.2	82.2	52	61.9	2	5	248	0.00	29.893 
19:35	81.1	81.1	82.2	53	62.3	1	3	270	0.00	29.893 
19:40	81.1	81.1	82.2	53	62.3	1	5	248	0.00	29.893 
19:45	80.9	80.9	82.0	53	62.1	2	4	248	0.00	29.898 
19:50	80.9	80.9	82.1	54	62.7	1	3	270	0.00	29.898 
19:55	80.5	80.5	81.8	55	62.8	1	3	270	0.00	29.898 
20:00	80.3	80.3	81.7	56	63.1	0	1	270	0.00	29.904 
20:05	80.1	80.1	81.5	56	63.0	0	2	270	0.00	29.904 
20:10	79.8	79.8	81.3	57	63.2	0	2	270	0.00	29.904 
20:15	79.6	79.6	81.2	58	63.5	0	0	---	0.00	29.905 
20:20	79.2	79.2	80.7	58	63.1	0	1	270	0.00	29.905 
20:25	78.6	78.6	80.2	59	63.1	0	1	270	0.00	29.905 
20:30	78.3	78.3	80.0	60	63.2	0	1	270	0.00	29.912 
20:35	77.9	77.9	79.6	61	63.3	0	0	---	0.00	29.912 
20:40	77.6	77.6	79.4	62	63.5	0	0	---	0.00	29.912 
20:45	77.2	77.2	79.0	62	63.2	0	1	270	0.00	29.920 
20:50	76.8	76.8	78.6	63	63.2	0	0	---	0.00	29.920 
20:55	76.5	76.5	78.3	64	63.4	0	0	---	0.00	29.920 
21:00	76.3	76.3	78.1	65	63.6	0	0	---	0.00	29.923 
21:05	76.0	76.0	77.9	65	63.4	0	0	---	0.00	29.923 
21:10	75.6	75.6	77.5	66	63.4	0	0	---	0.00	29.923 
21:15	75.1	75.1	77.0	67	63.4	0	0	---	0.00	29.926 
21:20	74.7	74.7	74.7	68	63.4	0	0	---	0.00	29.926 
21:25	74.4	74.4	74.4	69	63.5	0	0	---	0.00	29.926 
21:30	73.9	73.9	73.9	71	63.9	0	0	---	0.00	29.935 
21:35	73.3	73.3	73.3	72	63.7	0	0	---	0.00	29.935 
21:40	73.0	73.0	73.0	72	63.4	0	0	---	0.00	29.935 
21:45	72.7	72.7	72.7	74	63.9	0	0	---	0.00	29.939 
21:50	72.3	72.3	72.3	75	63.9	0	0	---	0.00	29.939 
21:55	72.0	72.0	72.0	76	64.0	0	0	---	0.00	29.939 
22:00	71.6	71.6	71.6	77	64.0	0	0	---	0.00	29.945 
22:05	71.3	71.3	71.3	77	63.7	0	0	---	0.00	29.945 
22:10	71.1	71.1	71.1	78	63.9	0	0	---	0.00	29.945 
22:15	70.8	70.8	70.8	78	63.6	0	0	---	0.00	29.946 
22:20	70.6	70.6	70.6	79	63.8	0	0	---	0.00	29.946 
22:25	70.3	70.3	70.3	80	63.8	0	0	---	0.00	29.946 
22:30	70.3	70.3	70.3	81	64.2	0	0	---	0.00	29.949 
22:35	70.1	70.1	70.1	82	64.3	0	0	---	0.00	29.949 
22:40	70.1	70.1	70.1	82	64.3	0	0	---	0.00	29.949 
22:45	70.1	70.1	70.1	82	64.3	0	0	---	0.00	29.951 
22:50	69.9	69.9	69.9	83	64.5	0	0	---	0.00	29.951 
22:55	69.8	69.8	69.8	83	64.4	0	0	---	0.00	29.951 
23:00	69.6	69.6	69.6	83	64.2	0	0	---	0.00	29.952 
23:05	69.6	69.6	69.6	84	64.5	0	0	---	0.00	29.952 
23:10	69.6	69.6	69.6	84	64.5	0	0	---	0.00	29.952 
23:15	69.4	69.4	69.4	84	64.3	0	0	---	0.00	29.952 
23:20	69.3	69.3	69.3	84	64.2	0	0	---	0.00	29.952 
23:25	69.1	69.1	69.1	84	64.1	0	0	---	0.00	29.952 
23:30	68.9	68.9	68.9	84	63.9	0	0	---	0.00	29.951 
23:35	68.8	68.8	68.8	85	64.1	0	0	---	0.00	29.951 
23:40	68.6	68.6	68.6	85	63.9	0	0	---	0.00	29.951 
23:45	68.4	68.4	68.4	85	63.7	0	0	---	0.00	29.955 
23:50	68.3	68.3	68.3	86	63.9	0	0	---	0.00	29.955 
23:55	68.1	68.1	68.1	86	63.7	0	0	---	0.00	29.955 

CoCoRaHS
IN-AL-39
A2 Web Hosting
Creative Commons License
GoDaddy
search engine by freefind advanced

loaded 2018-11-20 09:29:33 • last modified 2010-11-18 10:43:29
Privacy PolicyDisclaimer
• wx.awcolley.com is powered by PmWiki v.2002016 •
• all content (unless otherwise noted) © 2018 A W Colley